Terminal Aerodrome Forecast
Issued by NWS

Current Version | Previous Version | Graphics & Text | Print | Product List | Glossary On
Versions: 1 2 3 4 5 6 7 8 9 10 11 12 13 14 15 16 17 18 19 20 21 22 23 24 25 26 27 28
515
FTUS41 KRLX 230920 AAA
TAFCKB
TAF AMD
KCKB 230920Z 2309/2406 00000KT 6SM BR OVC015
     FM231200 00000KT 4SM BR OVC015
     FM231600 21005KT 6SM SHRA OVC020
     FM232000 19005KT P6SM BKN025
     FM232300 VRB03KT P6SM BKN040=

USA.gov is the U.S. government's official web portal to all federal, state and local government web resources and services.